createdAt,value
2018-04-16T00:02:04.745Z,6.67
2018-04-16T00:04:33.149Z,5.80
2018-04-16T00:07:01.613Z,4.77
2018-04-16T00:09:29.221Z,5.97
2018-04-16T00:11:56.874Z,5.17
2018-04-16T00:14:24.958Z,4.77
2018-04-16T00:16:52.621Z,5.17
2018-04-16T00:19:21.085Z,5.07
2018-04-16T00:21:48.694Z,4.93
2018-04-16T00:24:16.329Z,5.03
2018-04-16T00:26:43.987Z,5.47
2018-04-16T00:29:12.429Z,5.23
2018-04-16T00:34:52.253Z,5.20
2018-04-16T00:37:25.440Z,5.10
2018-04-16T00:39:58.663Z,5.83
2018-04-16T00:42:32.540Z,5.33
2018-04-16T00:48:12.520Z,6.23
2018-04-16T00:50:46.496Z,4.60
2018-04-16T00:53:19.741Z,5.77
2018-04-16T00:55:53.091Z,4.47
2018-04-16T00:58:26.252Z,4.50
2018-04-16T01:00:59.444Z,4.17
2018-04-16T01:03:32.573Z,4.53
2018-04-16T01:06:05.785Z,4.27
2018-04-16T01:08:39.004Z,6.43
2018-04-16T01:11:12.233Z,5.47
2018-04-16T01:13:45.420Z,5.50
2018-04-16T01:16:19.301Z,5.40
2018-04-16T01:18:52.564Z,4.90
2018-04-16T01:21:25.722Z,5.60
2018-04-16T01:23:58.908Z,5.07
2018-04-16T01:26:32.802Z,6.57
2018-04-16T01:29:05.977Z,5.63
2018-04-16T01:31:40.016Z,5.63
2018-04-16T01:37:15.717Z,5.97
2018-04-16T01:39:49.134Z,5.70
2018-04-16T01:42:22.328Z,5.97
2018-04-16T01:44:55.449Z,8.13
2018-04-16T01:47:28.768Z,5.87
2018-04-16T01:50:01.873Z,5.80
2018-04-16T01:52:35.086Z,7.87
2018-04-16T01:55:08.428Z,5.10
2018-04-16T01:57:41.551Z,6.50
2018-04-16T02:00:14.729Z,5.50
2018-04-16T02:02:48.853Z,5.57
2018-04-16T02:05:22.093Z,5.20
2018-04-16T02:07:55.334Z,5.87
2018-04-16T02:10:28.664Z,5.47
2018-04-16T02:13:02.000Z,5.73
2018-04-16T02:15:35.068Z,5.47
2018-04-16T02:18:09.185Z,6.70
2018-04-16T02:20:42.345Z,6.80
2018-04-16T02:23:15.637Z,9.47
2018-04-16T02:25:49.629Z,6.30
2018-04-16T02:28:22.904Z,7.83
2018-04-16T02:30:56.096Z,6.43
2018-04-16T02:33:29.445Z,6.63
2018-04-16T02:36:03.513Z,7.07
2018-04-16T02:38:36.732Z,8.23
2018-04-16T02:41:09.844Z,5.60
2018-04-16T02:43:43.879Z,7.03
2018-04-16T02:49:22.516Z,9.30
2018-04-16T02:51:55.713Z,8.40
2018-04-16T02:54:28.945Z,6.80
2018-04-16T02:57:02.053Z,8.20
2018-04-16T02:59:35.248Z,7.13
2018-04-16T03:02:09.249Z,7.63
2018-04-16T03:04:42.431Z,6.33
2018-04-16T03:07:15.615Z,7.30
2018-04-16T03:09:49.608Z,6.47
2018-04-16T03:12:22.848Z,6.10
2018-04-16T03:14:56.078Z,5.60
2018-04-16T03:17:29.997Z,6.83
2018-04-16T03:20:03.265Z,7.50
2018-04-16T03:22:36.608Z,7.03
2018-04-16T03:25:09.782Z,5.80
2018-04-16T03:27:44.498Z,7.13
2018-04-16T03:30:17.808Z,7.03
2018-04-16T03:32:50.961Z,5.27
2018-04-16T03:35:24.190Z,5.33
2018-04-16T03:37:57.561Z,5.83
2018-04-16T03:40:30.919Z,6.10
2018-04-16T03:43:04.177Z,6.37
2018-04-16T03:45:37.522Z,6.73
2018-04-16T03:48:10.785Z,6.53
2018-04-16T03:50:44.191Z,7.77
2018-04-16T03:53:21.749Z,6.67
2018-04-16T03:55:53.616Z,7.90
2018-04-16T03:58:21.273Z,7.10
2018-04-16T04:00:48.889Z,6.53
2018-04-16T04:03:16.549Z,6.63
2018-04-16T04:05:44.161Z,7.67
2018-04-16T04:08:11.793Z,7.00
2018-04-16T04:10:39.470Z,8.50
2018-04-16T04:13:07.154Z,6.53
2018-04-16T04:15:34.801Z,7.77
2018-04-16T04:18:02.437Z,6.47
2018-04-16T04:20:30.089Z,7.73
2018-04-16T04:23:10.378Z,6.90
2018-04-16T04:25:49.736Z,6.07
2018-04-16T04:28:30.000Z,6.47
2018-04-16T04:30:57.633Z,6.20
2018-04-16T04:33:25.237Z,6.93
2018-04-16T04:35:52.888Z,7.80
2018-04-16T04:38:21.293Z,6.47
2018-04-16T04:40:49.737Z,6.70
2018-04-16T04:43:17.433Z,6.70
2018-04-16T04:45:45.083Z,6.53
2018-04-16T04:48:13.501Z,6.90
2018-04-16T04:50:41.121Z,6.33
2018-04-16T04:53:08.754Z,6.27
2018-04-16T04:55:37.351Z,7.83
2018-04-16T04:58:05.060Z,7.30
2018-04-16T05:00:33.452Z,7.70
2018-04-16T05:03:01.837Z,8.00
2018-04-16T05:05:29.476Z,7.10
2018-04-16T05:07:57.181Z,7.33
2018-04-16T05:10:24.814Z,7.33
2018-04-16T05:12:53.197Z,7.17
2018-04-16T05:15:20.838Z,7.20
2018-04-16T05:17:48.607Z,7.37
2018-04-16T05:20:16.229Z,8.07
2018-04-16T05:22:43.877Z,8.00
2018-04-16T05:25:12.270Z,8.47
2018-04-16T05:27:39.972Z,7.00
2018-04-16T05:30:07.617Z,7.50
2018-04-16T05:32:35.293Z,7.57
2018-04-16T05:35:02.912Z,8.07
2018-04-16T05:37:30.553Z,8.30
2018-04-16T05:39:58.177Z,9.03
2018-04-16T05:42:25.895Z,8.77
2018-04-16T05:44:53.540Z,8.97
2018-04-16T05:47:21.168Z,8.67
2018-04-16T05:49:49.578Z,9.40
2018-04-16T05:55:33.215Z,9.13
2018-04-16T05:58:00.941Z,10.63
2018-04-16T06:00:28.650Z,10.70
2018-04-16T06:02:57.062Z,10.23
2018-04-16T06:05:25.481Z,10.53
2018-04-16T06:07:53.214Z,11.03
2018-04-16T06:10:20.852Z,11.30
2018-04-16T06:12:48.517Z,11.43
2018-04-16T06:15:16.910Z,10.67
2018-04-16T06:17:44.555Z,10.97
2018-04-16T06:20:12.234Z,10.60
2018-04-16T06:22:40.023Z,11.07
2018-04-16T06:25:09.258Z,11.33
2018-04-16T06:27:36.978Z,11.17
2018-04-16T06:30:04.668Z,10.80
2018-04-16T06:32:32.292Z,9.90
2018-04-16T06:35:00.701Z,10.50
2018-04-16T06:37:29.110Z,11.83
2018-04-16T06:39:56.824Z,11.07
2018-04-16T06:42:24.488Z,10.57
2018-04-16T06:44:52.105Z,10.73
2018-04-16T06:47:19.775Z,9.33
2018-04-16T06:49:47.401Z,9.10
2018-04-16T06:52:15.066Z,8.87
2018-04-16T06:54:42.714Z,9.30
2018-04-16T06:57:11.149Z,9.30
2018-04-16T06:59:38.794Z,9.10
2018-04-16T07:02:07.219Z,8.87
2018-04-16T07:04:35.613Z,9.20
2018-04-16T07:07:04.085Z,9.97
2018-04-16T07:09:31.734Z,9.03
2018-04-16T07:11:59.412Z,9.73
2018-04-16T07:14:27.502Z,8.63
2018-04-16T07:16:55.170Z,8.67
2018-04-16T07:19:23.584Z,9.73
2018-04-16T07:21:52.046Z,7.93
2018-04-16T07:24:19.740Z,8.07
2018-04-16T07:26:47.353Z,7.70
2018-04-16T07:29:15.791Z,7.93
2018-04-16T07:31:43.422Z,7.53
2018-04-16T07:34:11.073Z,7.63
2018-04-16T07:36:38.725Z,8.00
2018-04-16T07:39:07.190Z,6.83
2018-04-16T07:41:34.838Z,6.70
2018-04-16T07:44:02.514Z,6.67
2018-04-16T07:46:30.186Z,7.33
2018-04-16T07:48:58.605Z,7.03
2018-04-16T07:51:26.284Z,6.73
2018-04-16T07:53:54.650Z,6.17
2018-04-16T07:56:22.443Z,6.43
2018-04-16T07:58:50.114Z,5.90
2018-04-16T08:01:17.764Z,5.77
2018-04-16T08:03:46.173Z,6.23
2018-04-16T08:06:14.578Z,5.30
2018-04-16T08:08:42.299Z,5.50
2018-04-16T08:11:09.989Z,6.10
2018-04-16T08:13:37.696Z,6.07
2018-04-16T08:16:05.431Z,6.23
2018-04-16T08:18:33.060Z,6.20
2018-04-16T08:21:00.698Z,6.10
2018-04-16T08:23:29.259Z,7.27
2018-04-16T08:25:57.961Z,5.83
2018-04-16T08:28:26.369Z,6.53
2018-04-16T08:30:54.795Z,6.10
2018-04-16T08:33:22.432Z,6.53
2018-04-16T08:35:50.122Z,5.43
2018-04-16T08:38:17.741Z,6.90
2018-04-16T08:40:45.396Z,5.93
2018-04-16T08:43:13.072Z,7.07
2018-04-16T08:45:41.444Z,5.57
2018-04-16T08:48:09.100Z,5.90
2018-04-16T08:50:36.741Z,5.57
2018-04-16T08:53:05.171Z,5.40
2018-04-16T08:55:32.862Z,6.47
2018-04-16T08:58:00.488Z,6.00
2018-04-16T09:00:28.157Z,6.20
2018-04-16T09:02:55.777Z,5.87
2018-04-16T09:05:23.467Z,5.53
2018-04-16T09:07:51.180Z,6.40
2018-04-16T09:10:18.843Z,6.90
2018-04-16T09:12:46.521Z,6.43
2018-04-16T09:15:14.165Z,7.33
2018-04-16T09:17:41.845Z,7.17
2018-04-16T09:20:10.234Z,6.63
2018-04-16T09:22:37.864Z,6.77
2018-04-16T09:25:05.493Z,7.03
2018-04-16T09:27:33.195Z,8.23
2018-04-16T09:30:00.797Z,7.70
2018-04-16T09:32:28.453Z,9.10
2018-04-16T09:34:56.106Z,8.07
2018-04-16T09:37:23.745Z,8.70
2018-04-16T09:39:52.179Z,8.97
2018-04-16T09:42:19.994Z,8.63
2018-04-16T09:44:47.677Z,9.13
2018-04-16T09:47:15.314Z,8.07
2018-04-16T09:49:43.749Z,9.07
2018-04-16T09:52:11.410Z,8.73
2018-04-16T09:54:39.824Z,8.63
2018-04-16T09:57:08.247Z,8.37
2018-04-16T09:59:35.880Z,11.07
2018-04-16T10:02:09.177Z,10.03
2018-04-16T10:04:36.821Z,8.63
2018-04-16T10:07:05.265Z,9.37
2018-04-16T10:09:32.908Z,9.40
2018-04-16T10:12:00.569Z,7.57
2018-04-16T10:14:28.226Z,8.60
2018-04-16T10:16:55.894Z,8.23
2018-04-16T10:19:23.529Z,7.90
2018-04-16T10:21:51.190Z,7.50
2018-04-16T10:24:18.842Z,7.20
2018-04-16T10:26:47.249Z,6.77
2018-04-16T10:29:14.974Z,7.73
2018-04-16T10:31:43.459Z,6.97
2018-04-16T10:34:11.193Z,7.47
2018-04-16T10:36:38.893Z,6.60
2018-04-16T10:39:06.574Z,7.70
2018-04-16T10:41:34.230Z,6.43
2018-04-16T10:44:01.907Z,6.70
2018-04-16T10:46:29.600Z,6.60
2018-04-16T10:48:57.238Z,8.93
2018-04-16T10:51:25.660Z,7.57
2018-04-16T10:53:53.305Z,9.30
2018-04-16T10:56:20.981Z,8.37
2018-04-16T10:58:48.613Z,6.97
2018-04-16T11:01:17.065Z,6.57
2018-04-16T11:03:44.730Z,7.80
2018-04-16T11:06:12.428Z,7.17
2018-04-16T11:08:40.037Z,7.80
2018-04-16T11:11:07.689Z,6.97
2018-04-16T11:13:35.390Z,6.83
2018-04-16T11:16:03.014Z,6.73
2018-04-16T11:18:30.684Z,7.27
2018-04-16T11:20:58.529Z,7.20
2018-04-16T11:23:26.229Z,9.20
2018-04-16T11:25:53.847Z,7.77
2018-04-16T11:28:21.505Z,8.20
2018-04-16T11:30:49.176Z,7.70
2018-04-16T11:33:17.634Z,8.23
2018-04-16T11:35:46.177Z,8.43
2018-04-16T11:38:14.594Z,7.80
2018-04-16T11:40:43.050Z,8.80
2018-04-16T11:43:10.673Z,8.53
2018-04-16T11:45:39.137Z,8.63
2018-04-16T11:48:06.773Z,9.57
2018-04-16T11:50:35.184Z,9.20
2018-04-16T11:53:02.845Z,9.87
2018-04-16T11:55:30.562Z,9.97
2018-04-16T11:57:58.960Z,9.90
2018-04-16T12:00:27.409Z,9.67
2018-04-16T12:02:55.034Z,9.90
2018-04-16T12:05:22.691Z,10.03
2018-04-16T12:07:50.350Z,9.97
2018-04-16T12:10:17.993Z,10.50
2018-04-16T12:12:45.652Z,9.90
2018-04-16T12:15:13.289Z,10.50
2018-04-16T12:17:40.995Z,10.70
2018-04-16T12:20:08.638Z,10.23
2018-04-16T12:22:36.337Z,12.60
2018-04-16T12:25:04.015Z,11.03
2018-04-16T12:27:31.642Z,10.83
2018-04-16T12:29:59.279Z,8.93
2018-04-16T12:32:26.945Z,9.33
2018-04-16T12:34:54.624Z,9.80
2018-04-16T12:37:22.262Z,10.97
2018-04-16T12:39:50.703Z,8.27
2018-04-16T12:42:18.377Z,11.03
2018-04-16T12:44:46.793Z,9.87
2018-04-16T12:47:14.465Z,8.37
2018-04-16T12:49:42.837Z,8.80
2018-04-16T12:52:10.466Z,7.27
2018-04-16T12:54:39.011Z,6.97
2018-04-16T12:57:06.646Z,6.37
2018-04-16T12:59:34.768Z,6.80
2018-04-16T13:02:02.433Z,6.87
2018-04-16T13:04:30.090Z,5.57
2018-04-16T13:06:57.790Z,7.00
2018-04-16T13:09:25.429Z,5.57
2018-04-16T13:11:53.083Z,6.00
2018-04-16T13:14:20.711Z,4.57
2018-04-16T13:16:48.390Z,6.37
2018-04-16T13:19:16.069Z,5.67
2018-04-16T13:21:44.468Z,6.37
2018-04-16T13:24:12.890Z,5.67
2018-04-16T13:26:40.497Z,5.93
2018-04-16T13:29:08.166Z,4.97
2018-04-16T13:31:35.811Z,6.27
2018-04-16T13:34:03.454Z,4.77
2018-04-16T13:36:31.137Z,4.40
2018-04-16T13:38:58.798Z,7.33
2018-04-16T13:41:27.163Z,3.93
2018-04-16T13:43:54.849Z,4.43
2018-04-16T13:46:22.510Z,3.80
2018-04-16T13:48:50.139Z,3.43
2018-04-16T13:51:18.595Z,5.03
2018-04-16T13:53:46.222Z,3.50
2018-04-16T13:56:13.873Z,3.00
2018-04-16T13:58:41.480Z,3.07
2018-04-16T14:01:09.138Z,3.30
2018-04-16T14:03:36.780Z,3.60
2018-04-16T14:06:05.217Z,5.13
2018-04-16T14:08:32.946Z,4.80
2018-04-16T14:11:00.594Z,4.03
2018-04-16T14:13:28.246Z,4.00
2018-04-16T14:15:56.653Z,3.73
2018-04-16T14:18:25.097Z,3.13
2018-04-16T14:20:52.730Z,3.57
2018-04-16T14:23:20.419Z,3.17
2018-04-16T14:25:48.075Z,4.90
2018-04-16T14:28:15.789Z,3.33
2018-04-16T14:30:43.430Z,2.97
2018-04-16T14:33:11.870Z,3.33
2018-04-16T14:35:40.314Z,2.83
2018-04-16T14:38:08.010Z,4.57
2018-04-16T14:40:35.693Z,3.37
2018-04-16T14:43:03.411Z,2.73
2018-04-16T14:45:31.057Z,2.90
2018-04-16T14:47:58.690Z,1.90
2018-04-16T14:50:26.353Z,1.57
2018-04-16T14:52:53.982Z,4.07
2018-04-16T14:55:41.296Z,2.40
2018-04-16T14:58:08.937Z,1.77
2018-04-16T15:00:36.601Z,1.50
2018-04-16T15:03:04.289Z,2.83
2018-04-16T15:05:32.515Z,1.60
2018-04-16T15:08:00.150Z,5.10
2018-04-16T15:10:27.842Z,1.57
2018-04-16T15:12:55.525Z,1.97
2018-04-16T15:15:23.181Z,1.37
2018-04-16T15:17:50.872Z,2.60
2018-04-16T15:20:19.277Z,2.47
2018-04-16T15:22:47.698Z,1.90
2018-04-16T15:25:15.333Z,2.87
2018-04-16T15:27:42.958Z,1.63
2018-04-16T15:30:11.429Z,2.00
2018-04-16T15:32:39.074Z,1.83
2018-04-16T15:35:06.801Z,3.30
2018-04-16T15:37:34.448Z,3.67
2018-04-16T15:40:02.151Z,5.27
2018-04-16T15:42:29.825Z,6.60
2018-04-16T15:44:57.519Z,7.70
2018-04-16T15:47:25.191Z,8.83
2018-04-16T15:49:53.149Z,9.57
2018-04-16T15:52:20.823Z,8.63
2018-04-16T15:54:48.442Z,8.93
2018-04-16T15:57:16.890Z,7.97
2018-04-16T15:59:44.525Z,8.13
2018-04-16T16:02:12.590Z,8.73
2018-04-16T16:04:40.277Z,7.10
2018-04-16T16:07:08.172Z,7.50
2018-04-16T16:09:36.677Z,8.57
2018-04-16T16:12:04.418Z,6.77
2018-04-16T16:14:32.208Z,5.60
2018-04-16T16:16:59.857Z,5.17
2018-04-16T16:19:27.514Z,5.47
2018-04-16T16:21:55.162Z,3.90
2018-04-16T16:24:22.878Z,4.70
2018-04-16T16:26:50.578Z,3.90
2018-04-16T16:29:18.201Z,3.50
2018-04-16T16:31:45.868Z,3.10
2018-04-16T16:34:13.522Z,4.20
2018-04-16T16:36:41.204Z,4.03
2018-04-16T16:39:08.859Z,2.67
2018-04-16T16:41:37.294Z,2.30
2018-04-16T16:44:04.924Z,2.47
2018-04-16T16:46:33.360Z,2.63
2018-04-16T16:49:01.009Z,4.53
2018-04-16T16:51:28.654Z,2.17
2018-04-16T16:53:56.292Z,2.83
2018-04-16T16:56:23.960Z,2.30
2018-04-16T16:58:52.389Z,3.07
2018-04-16T17:01:20.845Z,1.87
2018-04-16T17:03:48.612Z,3.50
2018-04-16T17:06:16.291Z,3.07
2018-04-16T17:08:44.088Z,3.20
2018-04-16T17:11:11.829Z,3.00
2018-04-16T17:13:39.511Z,2.70
2018-04-16T17:16:08.178Z,4.73
2018-04-16T17:18:36.667Z,3.50
2018-04-16T17:21:04.353Z,3.10
2018-04-16T17:23:31.997Z,2.37
2018-04-16T17:25:59.706Z,3.00
2018-04-16T17:28:27.357Z,2.47
2018-04-16T17:30:55.018Z,2.80
2018-04-16T17:33:22.656Z,2.70
2018-04-16T17:35:50.313Z,2.50
2018-04-16T17:38:17.984Z,2.33
2018-04-16T17:40:45.629Z,4.83
2018-04-16T17:43:13.298Z,2.20
2018-04-16T17:45:41.719Z,2.87
2018-04-16T17:48:09.367Z,3.00
2018-04-16T17:50:37.007Z,3.23
2018-04-16T17:53:04.693Z,2.73
2018-04-16T17:55:32.324Z,3.00
2018-04-16T17:57:59.921Z,3.73
2018-04-16T18:00:27.578Z,3.77
2018-04-16T18:02:55.230Z,3.17
2018-04-16T18:05:22.912Z,2.63
2018-04-16T18:07:50.559Z,2.70
2018-04-16T18:10:18.245Z,2.87
2018-04-16T18:12:45.885Z,3.37
2018-04-16T18:15:13.574Z,4.00
2018-04-16T18:17:41.246Z,3.70
2018-04-16T18:20:08.859Z,4.03
2018-04-16T18:22:36.546Z,3.07
2018-04-16T18:25:04.168Z,2.73
2018-04-16T18:27:31.834Z,3.40
2018-04-16T18:29:59.473Z,2.70
2018-04-16T18:32:29.769Z,2.73
2018-04-16T18:34:58.530Z,3.10
2018-04-16T18:37:26.186Z,2.90
2018-04-16T18:39:54.693Z,3.90
2018-04-16T18:42:23.088Z,3.43
2018-04-16T18:44:50.736Z,4.93
2018-04-16T18:47:18.377Z,5.67
2018-04-16T18:49:46.112Z,5.70
2018-04-16T18:52:13.743Z,4.53
2018-04-16T18:54:41.979Z,4.40
2018-04-16T18:57:09.653Z,4.57
2018-04-16T18:59:38.088Z,4.53
2018-04-16T19:02:06.854Z,4.77
2018-04-16T19:04:35.065Z,7.57
2018-04-16T19:09:56.494Z,6.17
2018-04-16T19:12:24.931Z,6.80
2018-04-16T19:14:53.298Z,5.13
2018-04-16T19:17:21.022Z,5.77
2018-04-16T19:19:49.393Z,3.70
2018-04-16T19:22:17.038Z,6.47
2018-04-16T19:24:44.668Z,4.27
2018-04-16T19:27:17.922Z,4.40
2018-04-16T19:29:46.350Z,4.23
2018-04-16T19:32:13.998Z,5.00
2018-04-16T19:34:47.347Z,4.90
2018-04-16T19:37:15.016Z,4.50
2018-04-16T19:39:42.699Z,3.53
2018-04-16T19:42:16.070Z,4.40
2018-04-16T19:44:43.720Z,3.60
2018-04-16T19:47:12.331Z,6.10
2018-04-16T19:52:42.004Z,5.10
2018-04-16T19:55:09.690Z,4.70
2018-04-16T19:57:42.975Z,5.90
2018-04-16T20:00:10.957Z,5.13
2018-04-16T20:02:44.323Z,4.83
2018-04-16T20:05:12.258Z,6.60
2018-04-16T20:07:39.942Z,4.83
2018-04-16T20:10:07.739Z,4.70
2018-04-16T20:12:35.356Z,5.00
2018-04-16T20:15:03.147Z,5.30
2018-04-16T20:17:30.867Z,7.50
2018-04-16T20:19:58.536Z,6.07
2018-04-16T20:22:26.404Z,5.37
2018-04-16T20:24:54.535Z,5.10
2018-04-16T20:27:22.288Z,5.57
2018-04-16T20:29:50.030Z,5.30
2018-04-16T20:32:18.083Z,4.70
2018-04-16T20:34:45.938Z,4.67
2018-04-16T20:37:13.948Z,5.47
2018-04-16T20:39:42.470Z,5.77
2018-04-16T20:42:10.638Z,4.90
2018-04-16T20:44:38.450Z,5.20
2018-04-16T20:47:06.800Z,5.07
2018-04-16T20:49:34.406Z,5.20
2018-04-16T20:52:01.985Z,5.40
2018-04-16T20:54:29.683Z,5.43
2018-04-16T20:56:57.252Z,5.57
2018-04-16T20:59:24.857Z,6.17
2018-04-16T21:01:52.636Z,5.70
2018-04-16T21:04:20.292Z,6.53
2018-04-16T21:06:47.887Z,6.77
2018-04-16T21:09:15.456Z,6.63
2018-04-16T21:11:43.057Z,7.13
2018-04-16T21:14:10.655Z,6.00
2018-04-16T21:16:38.301Z,6.13
2018-04-16T21:19:05.934Z,8.10
2018-04-16T21:21:33.550Z,6.00
2018-04-16T21:24:01.969Z,6.33
2018-04-16T21:26:29.627Z,5.73
2018-04-16T21:28:57.281Z,6.77
2018-04-16T21:31:24.909Z,6.90
2018-04-16T21:33:53.322Z,7.03
2018-04-16T21:36:21.753Z,6.03
2018-04-16T21:38:49.355Z,6.13
2018-04-16T21:41:16.973Z,6.63
2018-04-16T21:43:45.377Z,6.53
2018-04-16T21:46:13.082Z,6.07
2018-04-16T21:48:40.692Z,6.73
2018-04-16T21:51:09.092Z,6.10
2018-04-16T21:53:37.597Z,6.27
2018-04-16T21:56:05.960Z,7.60
2018-04-16T21:58:33.528Z,6.70
2018-04-16T22:01:01.124Z,6.57
2018-04-16T22:03:28.701Z,5.83
2018-04-16T22:05:56.341Z,8.17
2018-04-16T22:08:24.742Z,7.50
2018-04-16T22:10:53.175Z,8.07
2018-04-16T22:13:20.830Z,8.17
2018-04-16T22:15:48.458Z,8.00
2018-04-16T22:18:16.927Z,9.20
2018-04-16T22:20:44.573Z,10.60
2018-04-16T22:23:13.073Z,9.13
2018-04-16T22:25:40.750Z,8.73
2018-04-16T22:48:20.664Z,7.87
2018-04-16T22:50:48.305Z,7.97
2018-04-16T22:53:15.933Z,8.20
2018-04-16T22:55:43.591Z,10.27
2018-04-16T22:58:11.993Z,9.43
2018-04-16T23:00:40.405Z,8.20
2018-04-16T23:03:08.826Z,7.77
2018-04-16T23:05:36.484Z,7.83
2018-04-16T23:08:04.904Z,8.07
2018-04-16T23:10:33.336Z,7.33
2018-04-16T23:13:00.979Z,7.43
2018-04-16T23:15:28.612Z,7.70
2018-04-16T23:17:56.281Z,7.97
2018-04-16T23:20:24.689Z,7.50
2018-04-16T23:22:53.047Z,7.33
2018-04-16T23:25:20.727Z,7.90
2018-04-16T23:27:48.373Z,7.13
2018-04-16T23:30:16.017Z,7.50
2018-04-16T23:32:43.678Z,6.97
2018-04-16T23:35:11.282Z,8.77
2018-04-16T23:37:38.937Z,6.77
2018-04-16T23:40:06.547Z,6.50
2018-04-16T23:42:34.207Z,7.23
2018-04-16T23:45:01.910Z,6.90
2018-04-16T23:47:29.540Z,6.67
2018-04-16T23:49:57.174Z,7.53
2018-04-16T23:52:24.779Z,7.90
2018-04-16T23:54:53.189Z,7.83
2018-04-16T23:57:20.919Z,8.23
2018-04-16T23:59:48.601Z,8.10
